Time;durP1;ratioP1;P1;durP2;ratioP2;P2;SDS_P1;SDS_P2;PMS_P1;PMS_P2;Temp;Humidity;BMP_temperature;BMP_pressure;BME280_temperature;BME280_humidity;BME280_pressure;Samples;Min_cycle;Max_cycle;Signal;HPM_P1;HPM_P2
2021/11/24 00:00:26;;;;;;;10.60;5.93;;;8.50;99.90;;;;;;4861791;29;20052;-85
2021/11/24 00:02:52;;;;;;;9.65;5.63;;;8.50;99.90;;;;;;4860811;29;20487;-86
2021/11/24 00:05:18;;;;;;;9.80;5.85;;;8.50;99.90;;;;;;4844963;29;20041;-85
2021/11/24 00:07:44;;;;;;;10.75;5.38;;;8.40;99.90;;;;;;4861188;29;20158;-85
2021/11/24 00:10:11;;;;;;;8.18;5.57;;;8.40;99.90;;;;;;4847053;29;20103;-85
2021/11/24 00:12:37;;;;;;;9.07;5.73;;;8.40;99.90;;;;;;4861579;29;20034;-85
2021/11/24 00:15:04;;;;;;;10.88;5.28;;;8.40;99.90;;;;;;4845099;29;20128;-83
2021/11/24 00:17:30;;;;;;;12.63;5.45;;;8.30;99.90;;;;;;4862253;29;20042;-85
2021/11/24 00:19:56;;;;;;;6.50;4.85;;;8.30;99.90;;;;;;4855706;29;20045;-86
2021/11/24 00:22:21;;;;;;;11.27;6.03;;;8.30;99.90;;;;;;4860645;29;20399;-84
2021/11/24 00:24:47;;;;;;;7.05;5.80;;;8.30;99.90;;;;;;4844514;29;20547;-84
2021/11/24 00:27:12;;;;;;;10.98;5.68;;;8.30;99.90;;;;;;4860683;29;20033;-84
2021/11/24 00:29:39;;;;;;;12.13;5.90;;;8.30;99.90;;;;;;4858204;29;20052;-84
2021/11/24 00:32:05;;;;;;;9.93;5.40;;;8.30;99.90;;;;;;4845433;29;20045;-85
2021/11/24 00:34:31;;;;;;;9.38;5.40;;;8.40;99.90;;;;;;4860484;29;20048;-86
2021/11/24 00:36:57;;;;;;;15.35;6.97;;;8.40;99.90;;;;;;4860747;29;20029;-85
2021/11/24 00:39:24;;;;;;;9.93;6.53;;;8.40;99.90;;;;;;4839610;29;20037;-85
2021/11/24 00:41:49;;;;;;;8.77;5.93;;;8.40;99.90;;;;;;4860834;29;20127;-86
2021/11/24 00:44:15;;;;;;;9.88;5.97;;;8.40;99.90;;;;;;4844857;29;20066;-86
2021/11/24 00:46:41;;;;;;;9.95;6.28;;;8.50;99.90;;;;;;4861818;29;20045;-86
2021/11/24 00:49:08;;;;;;;8.43;5.05;;;8.50;99.90;;;;;;4860076;29;20074;-86
2021/11/24 00:51:34;;;;;;;9.48;5.95;;;8.50;99.90;;;;;;4848579;29;20402;-85
2021/11/24 00:53:59;;;;;;;11.02;5.97;;;8.50;99.90;;;;;;4860912;29;20029;-85
2021/11/24 00:56:25;;;;;;;8.43;5.75;;;8.50;99.90;;;;;;4861951;29;20483;-85
2021/11/24 00:58:50;;;;;;;12.40;7.03;;;8.50;99.90;;;;;;4838744;29;20037;-82
2021/11/24 01:01:16;;;;;;;9.75;5.70;;;8.50;99.90;;;;;;4842653;29;20044;-85
2021/11/24 01:03:42;;;;;;;9.35;6.30;;;8.60;99.90;;;;;;4843149;29;20047;-85
2021/11/24 01:06:07;;;;;;;13.20;6.38;;;8.60;99.90;;;;;;4829049;29;20034;-84
2021/11/24 01:08:34;;;;;;;15.98;6.63;;;8.60;99.90;;;;;;4856760;29;20037;-85
2021/11/24 01:11:00;;;;;;;12.15;6.15;;;8.70;99.90;;;;;;4860585;29;20037;-85
2021/11/24 01:13:26;;;;;;;11.55;5.68;;;8.70;99.90;;;;;;4861398;29;20029;-86
2021/11/24 01:15:51;;;;;;;11.00;6.38;;;8.60;99.90;;;;;;4843998;29;20044;-85
2021/11/24 01:18:17;;;;;;;10.45;6.38;;;8.60;99.90;;;;;;4845466;29;20498;-85
2021/11/24 01:20:46;;;;;;;8.02;4.72;;;8.60;99.90;;;;;;4840254;29;20533;-85
2021/11/24 01:23:13;;;;;;;9.50;5.00;;;8.60;99.90;;;;;;4845315;29;20046;-85
2021/11/24 01:25:38;;;;;;;8.43;5.43;;;8.60;99.90;;;;;;4844470;29;20165;-85
2021/11/24 01:28:04;;;;;;;10.52;5.05;;;8.50;99.90;;;;;;4843697;29;20499;-85
2021/11/24 01:30:30;;;;;;;8.10;5.25;;;8.60;99.90;;;;;;4843979;29;20030;-81
2021/11/24 01:32:56;;;;;;;8.82;4.65;;;8.60;99.90;;;;;;4860719;29;20049;-83
2021/11/24 01:35:22;;;;;;;9.07;4.95;;;8.60;99.90;;;;;;4863527;29;20411;-83
2021/11/24 01:37:48;;;;;;;5.93;3.95;;;8.60;99.90;;;;;;4863561;29;20034;-82
2021/11/24 01:40:14;;;;;;;3.72;2.83;;;8.80;99.90;;;;;;4849710;29;20052;-84
2021/11/24 01:42:40;;;;;;;2.92;2.67;;;8.90;99.90;;;;;;4865992;29;20399;-83
2021/11/24 01:45:07;;;;;;;4.28;2.40;;;9.00;99.90;;;;;;4850182;29;20086;-83
2021/11/24 01:47:33;;;;;;;4.80;2.45;;;9.00;99.90;;;;;;4850509;29;20025;-84
2021/11/24 01:49:58;;;;;;;4.07;2.50;;;9.00;99.90;;;;;;4848578;29;20101;-84
2021/11/24 01:52:24;;;;;;;5.05;2.38;;;8.90;99.90;;;;;;4849906;29;20021;-83
2021/11/24 01:54:50;;;;;;;2.90;2.60;;;8.90;99.90;;;;;;4864302;29;20037;-84
2021/11/24 01:57:17;;;;;;;4.68;2.47;;;8.90;99.90;;;;;;4863872;29;20436;-83
2021/11/24 01:59:45;;;;;;;4.72;2.72;;;8.90;99.90;;;;;;4848244;29;20038;-82
2021/11/24 02:02:10;;;;;;;;;;;8.90;99.90;;;;;;4848767;29;20045;-83
2021/11/24 02:04:36;;;;;;;4.72;2.70;;;8.80;99.90;;;;;;4863188;29;20053;-83
2021/11/24 02:07:02;;;;;;;10.48;3.05;;;8.80;99.90;;;;;;4847524;29;20037;-82
2021/11/24 02:09:28;;;;;;;3.80;2.85;;;8.90;99.90;;;;;;4863773;29;20038;-83
2021/11/24 02:11:56;;;;;;;4.70;3.03;;;8.90;99.90;;;;;;4864551;29;20037;-83
2021/11/24 02:14:22;;;;;;;3.25;2.50;;;8.80;99.90;;;;;;4863021;29;20040;-82
2021/11/24 02:16:53;;;;;;;4.93;2.80;;;8.80;99.90;;;;;;4864182;29;20434;-82
2021/11/24 02:19:20;;;;;;;2.33;2.13;;;8.80;99.90;;;;;;4848267;29;20490;-84
2021/11/24 02:21:52;;;;;;;6.88;2.50;;;8.90;99.90;;;;;;4847137;29;20041;-83
2021/11/24 02:24:21;;;;;;;3.50;2.30;;;9.00;99.90;;;;;;4863740;29;20097;-83
2021/11/24 02:26:47;;;;;;;3.63;2.28;;;9.10;99.90;;;;;;4846446;29;20014;-82
2021/11/24 02:29:12;;;;;;;2.40;1.60;;;9.10;99.90;;;;;;4863671;29;20491;-82
2021/11/24 02:31:38;;;;;;;2.90;2.38;;;9.10;99.90;;;;;;4846656;29;20033;-82
2021/11/24 02:34:04;;;;;;;3.90;2.40;;;9.00;99.90;;;;;;4846933;29;20038;-82
2021/11/24 02:36:31;;;;;;;9.73;2.38;;;9.10;99.90;;;;;;4847186;29;20025;-83
2021/11/24 02:38:59;;;;;;;2.83;2.33;;;9.00;99.90;;;;;;4863399;29;20029;-82
2021/11/24 02:41:25;;;;;;;3.33;2.10;;;8.90;99.90;;;;;;4845142;29;20068;-81
2021/11/24 02:43:50;;;;;;;2.70;2.20;;;8.80;99.90;;;;;;4863461;29;20048;-83
2021/11/24 02:46:16;;;;;;;3.78;2.17;;;8.80;99.90;;;;;;4845960;29;20041;-82
2021/11/24 02:48:42;;;;;;;3.05;2.13;;;8.80;99.90;;;;;;4847362;29;20416;-83
2021/11/24 02:51:08;;;;;;;1.73;1.45;;;8.90;99.90;;;;;;4864944;29;20025;-83
2021/11/24 02:53:35;;;;;;;2.38;2.13;;;8.90;99.90;;;;;;4862873;29;20033;-83
2021/11/24 02:56:02;;;;;;;2.67;2.47;;;8.90;99.90;;;;;;4846414;29;20029;-83
2021/11/24 02:58:29;;;;;;;2.40;2.20;;;8.80;99.90;;;;;;4847366;29;20037;-84
2021/11/24 03:00:57;;;;;;;2.70;1.98;;;8.80;99.90;;;;;;4862944;29;20033;-83
2021/11/24 03:03:23;;;;;;;4.90;1.92;;;8.80;99.90;;;;;;4862905;29;20044;-84
2021/11/24 03:05:49;;;;;;;2.55;2.10;;;8.80;99.90;;;;;;4846419;29;20089;-83
2021/11/24 03:08:14;;;;;;;3.67;2.35;;;8.80;99.90;;;;;;4846815;29;20021;-84
2021/11/24 03:10:40;;;;;;;2.95;2.13;;;8.80;99.90;;;;;;4864764;29;20399;-83
2021/11/24 03:13:07;;;;;;;3.30;2.30;;;8.90;99.90;;;;;;4846916;29;20112;-83
2021/11/24 03:15:33;;;;;;;4.75;2.70;;;9.00;99.90;;;;;;4864708;29;20080;-83
2021/11/24 03:17:59;;;;;;;4.53;2.17;;;9.00;99.90;;;;;;4847959;29;20041;-82
2021/11/24 03:20:27;;;;;;;11.77;4.95;;;8.90;99.90;;;;;;4848787;29;20033;-83
2021/11/24 03:22:57;;;;;;;3.92;3.15;;;8.90;99.90;;;;;;4849440;29;20037;-83
2021/11/24 03:25:23;;;;;;;3.03;2.35;;;8.80;99.90;;;;;;4862248;29;20074;-84
2021/11/24 03:27:49;;;;;;;7.38;2.38;;;8.80;99.90;;;;;;4882961;29;20047;-83
2021/11/24 03:30:18;;;;;;;3.08;2.25;;;8.70;99.90;;;;;;4857422;29;20448;-85
2021/11/24 03:32:44;;;;;;;2.92;2.58;;;8.70;99.90;;;;;;4866634;29;20029;-84
2021/11/24 03:35:10;;;;;;;5.28;2.25;;;8.70;99.90;;;;;;4862879;29;20022;-82
2021/11/24 03:37:37;;;;;;;5.28;2.40;;;8.70;99.90;;;;;;4871089;29;20471;-84
2021/11/24 03:40:06;;;;;;;3.58;2.17;;;8.70;99.90;;;;;;4846065;29;20538;-81
2021/11/24 03:42:32;;;;;;;5.25;2.83;;;8.70;99.90;;;;;;4862706;29;20078;-83
2021/11/24 03:44:59;;;;;;;3.63;3.08;;;8.80;99.90;;;;;;4842893;29;20029;-83
2021/11/24 03:47:24;;;;;;;6.95;3.30;;;8.80;99.90;;;;;;4846172;29;20029;-83
2021/11/24 03:49:50;;;;;;;4.95;2.67;;;8.90;99.90;;;;;;4862662;29;20029;-84
2021/11/24 03:52:15;;;;;;;4.55;2.80;;;9.00;99.90;;;;;;4862386;29;20082;-83
2021/11/24 03:54:41;;;;;;;6.57;2.92;;;8.90;99.90;;;;;;4862299;29;20078;-82
2021/11/24 03:57:07;;;;;;;9.18;3.15;;;8.90;99.90;;;;;;4850117;29;20483;-84
2021/11/24 03:59:32;;;;;;;4.70;2.88;;;8.90;99.90;;;;;;4845626;29;20033;-83
2021/11/24 04:01:58;;;;;;;3.05;2.75;;;8.80;99.90;;;;;;4861526;29;20121;-83
2021/11/24 04:04:24;;;;;;;4.72;3.70;;;8.70;99.90;;;;;;4845730;29;20185;-84
2021/11/24 04:06:49;;;;;;;7.82;4.68;;;8.60;99.90;;;;;;4845555;29;20028;-84
2021/11/24 04:09:15;;;;;;;7.38;4.00;;;8.60;99.90;;;;;;4845248;29;20052;-84
2021/11/24 04:11:41;;;;;;;6.45;4.18;;;8.60;99.90;;;;;;4845294;29;20033;-85
2021/11/24 04:14:06;;;;;;;9.05;4.13;;;8.60;99.90;;;;;;4844596;29;20474;-84
2021/11/24 04:16:32;;;;;;;6.78;3.92;;;8.60;99.90;;;;;;4846082;29;20038;-84
2021/11/24 04:19:00;;;;;;;5.00;3.58;;;8.80;99.90;;;;;;4846364;29;20526;-84
2021/11/24 04:21:25;;;;;;;;;;;8.80;99.90;;;;;;4861533;29;20040;-83
2021/11/24 04:23:52;;;;;;;5.13;3.67;;;8.70;99.90;;;;;;4861783;29;20296;-84
2021/11/24 04:26:18;;;;;;;6.95;3.95;;;8.70;99.90;;;;;;4861726;29;20096;-83
2021/11/24 04:28:43;;;;;;;5.25;3.70;;;8.60;99.90;;;;;;4879907;29;20040;-84
2021/11/24 04:31:09;;;;;;;6.60;3.90;;;8.60;99.90;;;;;;4863888;29;20519;-84
2021/11/24 04:33:36;;;;;;;9.68;4.72;;;8.50;99.90;;;;;;4887591;29;20025;-83
2021/11/24 04:36:03;;;;;;;9.80;5.13;;;8.50;99.90;;;;;;4882519;29;20040;-84
2021/11/24 04:38:29;;;;;;;8.13;4.57;;;8.60;99.90;;;;;;4867846;29;20025;-82
2021/11/24 04:40:55;;;;;;;7.05;4.50;;;8.60;99.90;;;;;;4868550;29;20041;-83
2021/11/24 04:43:23;;;;;;;6.65;4.63;;;8.60;99.90;;;;;;4884899;29;20053;-82
2021/11/24 04:45:49;;;;;;;7.93;4.97;;;8.60;99.90;;;;;;4869348;29;20013;-83
2021/11/24 04:48:15;;;;;;;6.93;4.03;;;8.60;99.90;;;;;;4885159;29;20033;-83
2021/11/24 04:50:41;;;;;;;8.20;5.10;;;8.60;99.90;;;;;;4869455;29;20061;-82
2021/11/24 04:53:06;;;;;;;6.13;4.07;;;8.60;99.90;;;;;;4869035;29;20025;-83
2021/11/24 04:55:33;;;;;;;6.10;4.10;;;8.60;99.90;;;;;;4868784;29;20033;-81
2021/11/24 04:57:59;;;;;;;10.95;5.25;;;8.60;99.90;;;;;;4881462;29;20036;-82
2021/11/24 05:00:25;;;;;;;7.90;4.68;;;8.60;99.90;;;;;;4868763;29;20120;-82
2021/11/24 05:02:52;;;;;;;9.43;4.05;;;8.60;99.90;;;;;;4860594;29;20073;-85
2021/11/24 05:05:24;;;;;;;7.28;4.55;;;8.70;99.90;;;;;;4863512;29;20040;-84
2021/11/24 05:07:50;;;;;;;5.07;4.22;;;8.70;99.90;;;;;;4866457;29;20014;-82
2021/11/24 05:10:16;;;;;;;13.48;5.10;;;8.70;99.90;;;;;;4872019;29;20010;-82
2021/11/24 05:12:42;;;;;;;5.85;3.75;;;8.70;99.90;;;;;;4888893;29;20085;-83
2021/11/24 05:15:18;;;;;;;8.73;4.82;;;8.70;99.90;;;;;;4891552;29;20022;-82
2021/11/24 05:17:45;;;;;;;7.53;4.45;;;8.80;99.90;;;;;;4873490;29;20038;-82
2021/11/24 05:20:11;;;;;;;8.15;4.60;;;8.80;99.90;;;;;;4872068;29;20117;-84
2021/11/24 05:22:38;;;;;;;5.93;4.38;;;8.70;99.90;;;;;;4888487;29;20046;-82
2021/11/24 05:25:04;;;;;;;6.38;4.68;;;8.70;99.90;;;;;;4888707;29;20005;-83
2021/11/24 05:27:29;;;;;;;9.80;5.32;;;8.90;99.90;;;;;;4872255;29;20049;-83
2021/11/24 05:29:55;;;;;;;9.90;5.07;;;8.90;99.90;;;;;;4906246;29;20029;-84
2021/11/24 05:32:21;;;;;;;8.80;4.50;;;8.80;99.90;;;;;;4877983;29;20034;-81
2021/11/24 05:34:46;;;;;;;7.78;4.55;;;8.70;99.90;;;;;;4888252;29;20334;-82
2021/11/24 05:37:12;;;;;;;7.60;4.70;;;8.70;99.90;;;;;;4887789;29;20029;-82
2021/11/24 05:39:38;;;;;;;11.35;6.07;;;8.60;99.90;;;;;;4887308;29;20603;-83
2021/11/24 05:42:04;;;;;;;10.00;5.38;;;8.50;99.90;;;;;;4885773;29;20092;-84
2021/11/24 05:44:34;;;;;;;11.80;6.50;;;8.50;99.90;;;;;;4884095;29;20017;-84
2021/11/24 05:47:06;;;;;;;10.43;6.60;;;8.50;99.90;;;;;;4878152;29;20070;-84
2021/11/24 05:49:32;;;;;;;9.73;5.90;;;8.50;99.90;;;;;;4870959;29;20045;-85
2021/11/24 05:51:58;;;;;;;8.35;5.95;;;8.50;99.90;;;;;;4871126;29;20029;-84
2021/11/24 05:54:24;;;;;;;9.63;5.20;;;8.50;99.90;;;;;;4853220;29;20364;-84
2021/11/24 05:56:50;;;;;;;7.47;5.25;;;8.50;99.90;;;;;;4869173;29;20037;-83
2021/11/24 05:59:18;;;;;;;12.07;5.82;;;8.50;99.90;;;;;;4855122;29;20033;-83
2021/11/24 06:01:44;;;;;;;11.30;5.80;;;8.50;99.90;;;;;;4869022;29;20053;-83
2021/11/24 06:04:09;;;;;;;8.68;5.20;;;8.50;99.90;;;;;;4852987;29;20461;-84
2021/11/24 06:06:36;;;;;;;12.88;6.47;;;8.50;99.90;;;;;;4850378;29;20034;-85
2021/11/24 06:09:06;;;;;;;8.85;6.25;;;8.50;99.90;;;;;;4866416;29;20033;-84
2021/11/24 06:11:32;;;;;;;11.88;5.80;;;8.60;99.90;;;;;;4850127;29;20041;-84
2021/11/24 06:13:58;;;;;;;10.43;6.38;;;8.60;99.90;;;;;;4849766;29;20483;-85
2021/11/24 06:16:23;;;;;;;10.32;5.38;;;8.60;99.90;;;;;;4867273;29;20093;-83
2021/11/24 06:18:49;;;;;;;8.40;5.35;;;8.60;99.90;;;;;;4871810;29;20045;-84
2021/11/24 06:21:21;;;;;;;8.90;5.43;;;8.60;99.90;;;;;;4847757;29;20061;-85
2021/11/24 06:23:47;;;;;;;7.30;4.53;;;8.50;99.90;;;;;;4865189;29;20517;-83
2021/11/24 06:26:15;;;;;;;8.75;4.25;;;8.50;99.90;;;;;;4848583;29;20038;-83
2021/11/24 06:28:41;;;;;;;10.38;5.18;;;8.40;99.90;;;;;;4848631;29;20033;-83
2021/11/24 06:31:07;;;;;;;9.65;5.22;;;8.50;99.90;;;;;;4848831;29;20099;-85
2021/11/24 06:33:32;;;;;;;9.25;5.07;;;8.50;99.90;;;;;;4847966;29;20482;-84
2021/11/24 06:35:58;;;;;;;11.63;5.53;;;8.50;99.90;;;;;;4869460;29;20056;-84
2021/11/24 06:38:23;;;;;;;12.43;7.18;;;8.50;99.90;;;;;;4864592;29;20028;-84
2021/11/24 06:40:49;;;;;;;12.05;6.43;;;8.50;99.90;;;;;;4848441;29;20085;-85
2021/11/24 06:43:15;;;;;;;10.77;6.07;;;8.50;99.90;;;;;;4862233;29;20479;-83
2021/11/24 06:45:42;;;;;;;12.90;7.47;;;8.60;99.90;;;;;;4848139;29;20029;-84
2021/11/24 06:48:08;;;;;;;16.75;7.95;;;8.60;99.90;;;;;;4848170;29;20513;-83
2021/11/24 06:50:34;;;;;;;13.55;6.07;;;8.50;99.90;;;;;;4864166;29;20033;-84
2021/11/24 06:53:00;;;;;;;14.88;7.20;;;8.50;99.90;;;;;;4864624;29;20109;-82
2021/11/24 06:55:25;;;;;;;17.50;8.13;;;8.50;99.90;;;;;;4855087;29;20029;-84
2021/11/24 06:57:51;;;;;;;14.10;7.72;;;8.40;99.90;;;;;;4864975;29;20404;-84
2021/11/24 07:00:17;;;;;;;12.80;7.63;;;8.40;99.90;;;;;;4862460;29;20057;-85
2021/11/24 07:02:42;;;;;;;17.13;8.07;;;8.50;99.90;;;;;;4862635;29;20465;-83
2021/11/24 07:05:09;;;;;;;18.40;8.75;;;8.50;99.90;;;;;;4846642;29;20034;-83
2021/11/24 07:07:35;;;;;;;12.95;7.10;;;8.50;99.90;;;;;;4863034;29;20394;-83
2021/11/24 07:10:22;;;;;;;16.25;8.38;;;8.50;99.90;;;;;;4863607;29;20026;-83
2021/11/24 07:12:47;;;;;;;13.77;7.68;;;8.50;99.90;;;;;;4862735;29;20443;-83
2021/11/24 07:15:13;;;;;;;17.77;8.05;;;8.50;99.90;;;;;;4863482;29;20108;-83
2021/11/24 07:17:39;;;;;;;18.15;8.93;;;8.50;99.90;;;;;;4862837;29;20025;-84
2021/11/24 07:20:05;;;;;;;13.55;7.32;;;8.50;99.90;;;;;;4846408;29;20025;-84
2021/11/24 07:22:31;;;;;;;18.48;9.18;;;8.50;99.90;;;;;;4846100;29;20111;-83
2021/11/24 07:24:57;;;;;;;19.13;8.20;;;8.60;99.90;;;;;;4846606;29;20025;-84
2021/11/24 07:27:23;;;;;;;13.40;8.10;;;8.50;99.90;;;;;;4846184;29;20401;-83
2021/11/24 07:29:48;;;;;;;16.17;8.50;;;8.50;99.90;;;;;;4843660;29;20491;-83
2021/11/24 07:32:14;;;;;;;19.88;7.38;;;8.50;99.90;;;;;;4845494;29;20061;-84
2021/11/24 07:34:40;;;;;;;15.63;8.25;;;8.60;99.90;;;;;;4862266;29;20033;-84
2021/11/24 07:37:05;;;;;;;16.27;7.95;;;8.60;99.90;;;;;;4862506;29;20010;-84
2021/11/24 07:39:32;;;;;;;14.10;7.95;;;8.60;99.90;;;;;;4845667;29;20048;-84
2021/11/24 07:41:58;;;;;;;19.02;7.68;;;8.60;99.90;;;;;;4862396;29;20034;-84
2021/11/24 07:44:24;;;;;;;14.85;7.68;;;8.60;99.90;;;;;;4861543;29;20025;-84
2021/11/24 07:46:49;;;;;;;14.07;7.35;;;8.60;99.90;;;;;;4862165;29;20037;-84
2021/11/24 07:49:15;;;;;;;16.13;7.68;;;8.60;99.90;;;;;;4845963;29;20034;-84
2021/11/24 07:51:41;;;;;;;14.48;6.70;;;8.60;99.90;;;;;;4844702;29;20037;-85
2021/11/24 07:54:06;;;;;;;13.65;7.63;;;8.70;99.90;;;;;;4852399;29;20033;-83
2021/11/24 07:56:32;;;;;;;17.48;7.78;;;8.70;99.90;;;;;;4865968;29;20391;-84
2021/11/24 07:58:58;;;;;;;14.40;7.88;;;8.70;99.90;;;;;;4845976;29;20041;-84
2021/11/24 08:01:23;;;;;;;12.93;6.65;;;8.70;99.90;;;;;;4862348;29;20105;-84
2021/11/24 08:03:49;;;;;;;10.93;6.38;;;8.70;99.90;;;;;;4846818;29;20060;-84
2021/11/24 08:06:15;;;;;;;18.48;6.85;;;8.70;99.90;;;;;;4862486;29;20395;-84
2021/11/24 08:08:40;;;;;;;18.70;7.60;;;8.80;99.90;;;;;;4862657;29;20057;-84
2021/11/24 08:11:06;;;;;;;14.02;6.55;;;8.80;99.90;;;;;;4845875;29;20034;-84
2021/11/24 08:13:32;;;;;;;13.60;6.68;;;8.80;99.90;;;;;;4861703;29;20088;-83
2021/11/24 08:15:58;;;;;;;10.90;6.18;;;8.80;99.90;;;;;;4860373;29;20093;-84
2021/11/24 08:18:24;;;;;;;15.20;7.03;;;8.80;99.90;;;;;;4856320;29;20092;-83
2021/11/24 08:20:50;;;;;;;13.82;6.72;;;8.90;99.90;;;;;;4862093;29;20034;-84
2021/11/24 08:23:15;;;;;;;12.73;7.22;;;8.90;99.90;;;;;;4845482;29;20036;-83
2021/11/24 08:25:41;;;;;;;15.32;7.20;;;8.80;99.90;;;;;;4862303;29;20074;-84
2021/11/24 08:28:07;;;;;;;15.93;6.63;;;8.80;99.90;;;;;;4846482;29;20021;-84
2021/11/24 08:30:33;;;;;;;15.18;6.72;;;8.70;99.90;;;;;;4862599;29;20033;-84
2021/11/24 08:33:00;;;;;;;12.40;6.53;;;8.80;99.90;;;;;;4861748;29;20033;-84
2021/11/24 08:35:26;;;;;;;14.13;7.10;;;8.90;99.90;;;;;;4846128;29;20036;-84
2021/11/24 08:37:52;;;;;;;13.70;6.47;;;8.80;99.90;;;;;;4853518;29;20140;-83
2021/11/24 08:40:18;;;;;;;9.38;5.78;;;8.80;99.90;;;;;;4862238;29;20042;-84
2021/11/24 08:42:43;;;;;;;15.60;7.18;;;8.80;99.90;;;;;;4845536;29;20033;-84
2021/11/24 08:45:11;;;;;;;17.73;7.65;;;8.80;99.90;;;;;;4862213;29;20065;-83
2021/11/24 08:47:38;;;;;;;14.20;6.93;;;8.80;99.90;;;;;;4861619;29;20045;-85
2021/11/24 08:50:06;;;;;;;13.20;6.40;;;8.80;99.90;;;;;;4865627;29;20367;-84
2021/11/24 08:52:32;;;;;;;12.20;6.63;;;8.80;99.90;;;;;;4849395;29;20590;-83
2021/11/24 08:54:57;;;;;;;14.15;7.22;;;8.80;99.90;;;;;;4849891;29;20049;-84
2021/11/24 08:57:23;;;;;;;14.15;7.68;;;8.80;99.90;;;;;;4849482;29;20125;-85
2021/11/24 08:59:49;;;;;;;12.07;6.53;;;8.80;99.90;;;;;;4850337;29;20065;-84
2021/11/24 09:02:15;;;;;;;13.27;6.68;;;8.80;99.90;;;;;;4864780;29;20053;-84
2021/11/24 09:04:41;;;;;;;11.50;6.38;;;8.90;99.90;;;;;;4848934;29;20036;-83
2021/11/24 09:07:07;;;;;;;13.27;6.60;;;8.90;99.90;;;;;;4866015;29;20036;-84
2021/11/24 09:09:35;;;;;;;12.18;6.90;;;8.90;99.90;;;;;;4849288;29;20030;-84
2021/11/24 09:12:01;;;;;;;9.05;4.63;;;9.00;99.90;;;;;;4865717;29;20021;-81
2021/11/24 09:14:26;;;;;;;15.27;6.25;;;9.00;99.90;;;;;;4865143;29;20049;-85
2021/11/24 09:16:52;;;;;;;17.00;6.65;;;9.00;99.90;;;;;;4848640;29;20029;-83
2021/11/24 09:19:18;;;;;;;12.05;7.00;;;9.00;99.90;;;;;;4859786;29;20483;-79
2021/11/24 09:21:45;;;;;;;13.52;6.50;;;9.10;99.90;;;;;;4872649;29;20112;-84
2021/11/24 09:24:13;;;;;;;14.40;7.05;;;9.20;99.90;;;;;;4865142;29;20436;-77
2021/11/24 09:26:55;;;;;;;16.60;6.90;;;9.20;99.90;;;;;;4848433;29;20032;-81
2021/11/24 09:29:21;;;;;;;10.68;7.05;;;9.20;99.90;;;;;;4854643;29;20041;-85
2021/11/24 09:31:47;;;;;;;13.05;6.35;;;9.20;99.90;;;;;;4860894;29;20063;-81
2021/11/24 09:34:13;;;;;;;17.80;6.78;;;9.20;99.90;;;;;;4865391;29;20052;-85
2021/11/24 09:36:41;;;;;;;19.48;6.43;;;9.20;99.90;;;;;;4852416;29;20026;-79
2021/11/24 09:39:07;;;;;;;12.88;6.55;;;9.20;99.90;;;;;;4848652;29;20089;-84
2021/11/24 09:41:38;;;;;;;9.27;5.65;;;9.10;99.90;;;;;;4848138;29;20028;-81
2021/11/24 09:44:05;;;;;;;13.68;6.57;;;9.10;99.90;;;;;;4848314;29;20025;-81
2021/11/24 09:46:32;;;;;;;11.07;6.32;;;9.10;99.90;;;;;;4865140;29;20044;-82
2021/11/24 09:49:01;;;;;;;9.98;6.20;;;9.10;99.90;;;;;;4863617;29;20076;-79
2021/11/24 09:51:30;;;;;;;14.35;7.18;;;9.20;99.90;;;;;;4865137;29;20100;-85
2021/11/24 09:54:00;;;;;;;14.05;6.20;;;9.20;99.90;;;;;;4848494;29;20037;-80
2021/11/24 09:56:26;;;;;;;11.60;6.53;;;9.10;99.90;;;;;;4846510;29;20065;-80
2021/11/24 09:58:52;;;;;;;13.52;5.75;;;9.10;99.90;;;;;;4848438;29;20045;-78
2021/11/24 10:01:17;;;;;;;10.73;6.35;;;9.20;99.90;;;;;;4849452;29;20051;-78
2021/11/24 10:03:43;;;;;;;11.73;6.13;;;9.10;99.90;;;;;;4849039;29;20045;-82
2021/11/24 10:06:09;;;;;;;15.00;6.65;;;9.20;99.90;;;;;;4865602;29;20032;-82
2021/11/24 10:08:35;;;;;;;18.77;6.78;;;9.10;99.90;;;;;;4849383;29;20033;-80
2021/11/24 10:11:02;;;;;;;16.58;6.25;;;9.20;99.90;;;;;;4847509;29;20034;-80
2021/11/24 10:13:29;;;;;;;11.60;6.00;;;9.20;99.90;;;;;;4848007;29;20064;-79
2021/11/24 10:15:57;;;;;;;8.45;5.40;;;9.20;99.90;;;;;;4847831;29;20045;-79
2021/11/24 10:18:59;;;;;;;10.18;4.80;;;9.30;99.90;;;;;;4863297;29;20053;-79
2021/11/24 10:21:26;;;;;;;9.27;5.20;;;9.30;99.90;;;;;;4848639;29;20029;-79
2021/11/24 10:23:53;;;;;;;11.07;5.53;;;9.40;99.90;;;;;;4849906;29;20033;-80
2021/11/24 10:26:38;;;;;;;8.95;5.03;;;9.40;99.90;;;;;;4866205;29;20022;-80
2021/11/24 10:29:06;;;;;;;9.52;5.03;;;9.40;99.90;;;;;;4866022;29;20033;-79
2021/11/24 10:31:41;;;;;;;9.38;5.10;;;9.40;99.90;;;;;;4848525;29;20045;-79
2021/11/24 10:34:20;;;;;;;10.20;4.65;;;9.40;99.90;;;;;;4848660;29;20140;-80
2021/11/24 10:36:55;;;;;;;7.13;4.32;;;9.40;99.90;;;;;;4847643;29;20439;-79
2021/11/24 10:39:22;;;;;;;12.75;5.47;;;9.60;99.90;;;;;;4848182;29;20034;-79
2021/11/24 10:41:49;;;;;;;10.63;5.00;;;9.60;99.90;;;;;;4845453;29;20038;-78
2021/11/24 10:44:28;;;;;;;9.98;5.90;;;9.60;99.90;;;;;;4848762;29;20037;-78
2021/11/24 10:46:56;;;;;;;9.70;5.03;;;9.60;99.90;;;;;;4853952;29;20111;-79
2021/11/24 10:49:47;;;;;;;13.00;5.68;;;9.50;99.90;;;;;;4866072;29;20558;-79
2021/11/24 10:52:15;;;;;;;9.57;5.38;;;9.60;99.90;;;;;;4846996;29;20037;-79
2021/11/24 10:54:43;;;;;;;7.72;4.72;;;9.60;99.90;;;;;;4840336;29;20063;-80
2021/11/24 10:57:13;;;;;;;8.60;4.80;;;9.60;99.90;;;;;;4868126;29;20537;-80
2021/11/24 10:59:43;;;;;;;9.10;5.38;;;9.60;99.90;;;;;;4863785;29;20487;-80
2021/11/24 11:02:46;;;;;;;7.30;5.15;;;9.60;99.90;;;;;;4846746;29;20572;-80
2021/11/24 11:05:18;;;;;;;9.07;4.10;;;9.50;99.90;;;;;;4846527;29;20076;-80
2021/11/24 11:07:50;;;;;;;6.65;4.55;;;9.50;99.90;;;;;;4859723;29;20105;-79
2021/11/24 11:10:24;;;;;;;8.55;5.10;;;9.60;99.90;;;;;;4852083;29;20050;-79
2021/11/24 11:12:55;;;;;;;9.05;3.85;;;9.60;99.90;;;;;;4848054;29;20042;-79
2021/11/24 11:15:28;;;;;;;7.00;4.22;;;9.70;99.90;;;;;;4848105;29;20063;-79
2021/11/24 11:18:09;;;;;;;8.65;4.68;;;9.70;99.90;;;;;;4864089;29;20033;-80
2021/11/24 11:20:47;;;;;;;5.38;3.85;;;9.70;99.90;;;;;;4864990;29;20029;-79
2021/11/24 11:23:16;;;;;;;8.85;4.57;;;9.80;99.90;;;;;;4848479;29;20045;-79
2021/11/24 11:25:48;;;;;;;9.15;4.65;;;9.90;99.90;;;;;;4847449;29;20069;-80
2021/11/24 11:28:15;;;;;;;7.72;4.80;;;9.90;99.90;;;;;;4847163;29;20034;-80
2021/11/24 11:30:43;;;;;;;6.63;4.35;;;9.90;99.90;;;;;;4846847;29;20034;-79
2021/11/24 11:33:10;;;;;;;7.72;4.70;;;9.90;99.90;;;;;;4864902;29;20029;-79
2021/11/24 11:35:36;;;;;;;8.50;5.10;;;9.90;99.90;;;;;;4864115;29;20041;-79
2021/11/24 11:38:02;;;;;;;10.02;5.47;;;9.90;99.90;;;;;;4864882;29;20032;-80
2021/11/24 11:40:28;;;;;;;10.32;6.18;;;10.00;99.90;;;;;;4866165;29;20097;-79
2021/11/24 11:43:01;;;;;;;8.93;5.82;;;10.00;99.90;;;;;;4883081;29;20031;-79
2021/11/24 11:45:31;;;;;;;9.50;5.57;;;10.00;99.90;;;;;;4867603;29;20036;-79
2021/11/24 11:47:59;;;;;;;8.27;5.50;;;10.00;99.90;;;;;;4868385;29;20028;-80
2021/11/24 11:50:50;;;;;;;7.00;5.35;;;10.10;99.90;;;;;;4862094;29;20034;-80
2021/11/24 11:53:38;;;;;;;12.55;6.82;;;10.10;99.90;;;;;;4847880;29;20026;-78
2021/11/24 11:56:13;;;;;;;9.35;6.10;;;10.10;99.90;;;;;;4851426;29;20033;-79
2021/11/24 11:59:15;;;;;;;12.07;7.75;;;10.10;99.90;;;;;;4848189;29;20025;-79
2021/11/24 12:01:40;;;;;;;11.07;6.38;;;10.20;99.90;;;;;;4862349;29;20045;-79
2021/11/24 12:04:08;;;;;;;13.38;7.82;;;10.20;99.90;;;;;;4863967;29;20037;-79
2021/11/24 12:06:51;;;;;;;9.93;6.65;;;10.20;99.90;;;;;;4848516;29;20495;-79
2021/11/24 12:09:24;;;;;;;13.45;7.00;;;10.20;99.90;;;;;;4846388;29;20056;-78
2021/11/24 12:11:59;;;;;;;11.98;7.28;;;10.20;99.90;;;;;;4846123;29;20042;-78
2021/11/24 12:14:57;;;;;;;10.18;6.60;;;10.20;99.90;;;;;;4863619;29;20521;-78
2021/11/24 12:20:15;;;;;;;13.20;8.57;;;10.00;99.90;;;;;;4881812;29;19943;-79
2021/11/24 12:22:53;;;;;;;15.15;7.28;;;10.10;99.90;;;;;;4823389;29;20132;-79
2021/11/24 12:25:24;;;;;;;10.82;7.47;;;10.00;99.90;;;;;;4830089;29;20052;-80
2021/11/24 12:27:58;;;;;;;12.65;8.02;;;10.00;99.90;;;;;;4845744;29;20022;-79
2021/11/24 12:30:40;;;;;;;13.90;8.57;;;9.90;99.90;;;;;;4831102;29;20037;-79
2021/11/24 12:33:26;;;;;;;12.18;7.40;;;9.90;99.90;;;;;;4846296;29;20408;-79
2021/11/24 12:36:23;;;;;;;15.10;8.15;;;9.90;99.90;;;;;;4864276;29;20378;-78
2021/11/24 12:38:58;;;;;;;12.00;7.32;;;9.90;99.90;;;;;;4847704;29;20451;-78
2021/11/24 12:41:30;;;;;;;14.50;8.60;;;9.80;99.90;;;;;;4845218;29;20052;-79
2021/11/24 12:43:59;;;;;;;14.82;9.00;;;9.80;99.90;;;;;;4846252;29;20434;-79
2021/11/24 12:46:27;;;;;;;14.32;9.45;;;9.80;99.90;;;;;;4844737;29;20125;-78
2021/11/24 12:48:58;;;;;;;12.25;7.57;;;9.90;99.90;;;;;;4846012;29;20578;-78
2021/11/24 12:51:30;;;;;;;20.75;9.20;;;9.90;99.90;;;;;;4862771;29;20137;-79
2021/11/24 12:54:12;;;;;;;15.20;7.80;;;9.80;99.90;;;;;;4833349;29;20132;-80
2021/11/24 12:57:07;;;;;;;11.98;8.13;;;9.90;99.90;;;;;;4846890;29;20146;-78
2021/11/24 12:59:40;;;;;;;13.27;8.00;;;9.90;99.90;;;;;;4826270;29;20384;-78